sensor_id;sensor_type;location;lat;lon;timestamp;pressure;altitude;pressure_sealevel;temperature;humidity
63946;BME280;50122;56.330;43.838;2023-07-31T00:02:19;99452.03;;;15.54;95.53
63946;BME280;50122;56.330;43.838;2023-07-31T00:04:46;99453.50;;;15.47;96.43
63946;BME280;50122;56.330;43.838;2023-07-31T00:07:14;99452.38;;;15.38;96.87
63946;BME280;50122;56.330;43.838;2023-07-31T00:09:42;99444.84;;;15.32;97.75
63946;BME280;50122;56.330;43.838;2023-07-31T00:12:09;99448.59;;;15.29;98.52
63946;BME280;50122;56.330;43.838;2023-07-31T00:14:36;99447.28;;;15.24;98.86
63946;BME280;50122;56.330;43.838;2023-07-31T00:17:02;99458.88;;;15.23;99.21
63946;BME280;50122;56.330;43.838;2023-07-31T00:19:29;99455.94;;;15.15;99.41
63946;BME280;50122;56.330;43.838;2023-07-31T00:21:57;99453.88;;;15.07;99.89
63946;BME280;50122;56.330;43.838;2023-07-31T00:24:24;99456.66;;;15.05;100.00
63946;BME280;50122;56.330;43.838;2023-07-31T00:26:50;99463.28;;;15.00;100.00
63946;BME280;50122;56.330;43.838;2023-07-31T00:29:18;99460.88;;;14.97;100.00
63946;BME280;50122;56.330;43.838;2023-07-31T00:31:45;99455.66;;;14.95;100.00
63946;BME280;50122;56.330;43.838;2023-07-31T00:34:12;99458.94;;;14.99;100.00
63946;BME280;50122;56.330;43.838;2023-07-31T00:36:39;99461.00;;;14.95;100.00
63946;BME280;50122;56.330;43.838;2023-07-31T00:39:06;99469.19;;;14.92;100.00
63946;BME280;50122;56.330;43.838;2023-07-31T00:41:33;99456.69;;;14.81;100.00
63946;BME280;50122;56.330;43.838;2023-07-31T00:44:00;99469.75;;;14.84;100.00
63946;BME280;50122;56.330;43.838;2023-07-31T00:46:27;99473.59;;;14.80;100.00
63946;BME280;50122;56.330;43.838;2023-07-31T00:48:53;99478.31;;;14.76;100.00
63946;BME280;50122;56.330;43.838;2023-07-31T00:51:20;99480.22;;;14.74;100.00
63946;BME280;50122;56.330;43.838;2023-07-31T00:53:47;99484.19;;;14.69;100.00
63946;BME280;50122;56.330;43.838;2023-07-31T00:56:15;99480.19;;;14.63;100.00
63946;BME280;50122;56.330;43.838;2023-07-31T00:58:43;99480.38;;;14.60;100.00
63946;BME280;50122;56.330;43.838;2023-07-31T01:01:10;99494.66;;;14.59;100.00
63946;BME280;50122;56.330;43.838;2023-07-31T01:03:37;99493.41;;;14.52;100.00
63946;BME280;50122;56.330;43.838;2023-07-31T01:11:51;99483.81;;;14.49;100.00
63946;BME280;50122;56.330;43.838;2023-07-31T01:14:19;99494.56;;;14.48;100.00
63946;BME280;50122;56.330;43.838;2023-07-31T01:16:46;99491.63;;;14.39;100.00
63946;BME280;50122;56.330;43.838;2023-07-31T01:19:14;99483.88;;;14.36;100.00
63946;BME280;50122;56.330;43.838;2023-07-31T01:26:48;99491.63;;;14.39;100.00
63946;BME280;50122;56.330;43.838;2023-07-31T01:29:31;99491.38;;;14.42;100.00
63946;BME280;50122;56.330;43.838;2023-07-31T01:32:01;99500.34;;;14.41;100.00
63946;BME280;50122;56.330;43.838;2023-07-31T01:34:29;99496.94;;;14.39;100.00
63946;BME280;50122;56.330;43.838;2023-07-31T01:36:57;99491.28;;;14.44;100.00
63946;BME280;50122;56.330;43.838;2023-07-31T01:39:24;99493.94;;;14.44;100.00
63946;BME280;50122;56.330;43.838;2023-07-31T01:41:54;99502.88;;;14.43;100.00
63946;BME280;50122;56.330;43.838;2023-07-31T01:44:21;99505.09;;;14.49;100.00
63946;BME280;50122;56.330;43.838;2023-07-31T01:46:49;99504.25;;;14.49;100.00
63946;BME280;50122;56.330;43.838;2023-07-31T01:49:18;99509.47;;;14.50;100.00
63946;BME280;50122;56.330;43.838;2023-07-31T01:51:44;99512.00;;;14.52;100.00
63946;BME280;50122;56.330;43.838;2023-07-31T01:54:11;99508.47;;;14.51;100.00
63946;BME280;50122;56.330;43.838;2023-07-31T01:56:39;99508.59;;;14.50;100.00
63946;BME280;50122;56.330;43.838;2023-07-31T01:59:06;99509.56;;;14.49;100.00
63946;BME280;50122;56.330;43.838;2023-07-31T02:01:32;99512.44;;;14.46;100.00
63946;BME280;50122;56.330;43.838;2023-07-31T02:03:59;99510.41;;;14.49;100.00
63946;BME280;50122;56.330;43.838;2023-07-31T02:06:26;99510.06;;;14.54;100.00
63946;BME280;50122;56.330;43.838;2023-07-31T02:08:53;99515.16;;;14.57;100.00
63946;BME280;50122;56.330;43.838;2023-07-31T02:11:20;99515.50;;;14.52;100.00
63946;BME280;50122;56.330;43.838;2023-07-31T02:13:47;99512.50;;;14.57;100.00
63946;BME280;50122;56.330;43.838;2023-07-31T02:16:14;99521.03;;;14.62;100.00
63946;BME280;50122;56.330;43.838;2023-07-31T02:18:41;99510.91;;;14.67;100.00
63946;BME280;50122;56.330;43.838;2023-07-31T02:21:08;99510.91;;;14.67;100.00
63946;BME280;50122;56.330;43.838;2023-07-31T02:23:34;99514.53;;;14.66;100.00
63946;BME280;50122;56.330;43.838;2023-07-31T02:26:02;99497.72;;;14.66;100.00
63946;BME280;50122;56.330;43.838;2023-07-31T02:28:29;99504.31;;;14.60;100.00
63946;BME280;50122;56.330;43.838;2023-07-31T02:30:56;99513.66;;;14.66;100.00
63946;BME280;50122;56.330;43.838;2023-07-31T02:33:26;99507.06;;;14.71;100.00
63946;BME280;50122;56.330;43.838;2023-07-31T02:35:53;99511.91;;;14.77;100.00
63946;BME280;50122;56.330;43.838;2023-07-31T02:38:20;99504.56;;;14.81;100.00
63946;BME280;50122;56.330;43.838;2023-07-31T02:40:46;99504.88;;;14.89;100.00
63946;BME280;50122;56.330;43.838;2023-07-31T02:43:14;99506.59;;;15.02;100.00
63946;BME280;50122;56.330;43.838;2023-07-31T02:45:41;99511.34;;;15.09;100.00
63946;BME280;50122;56.330;43.838;2023-07-31T02:48:08;99504.31;;;15.08;100.00
63946;BME280;50122;56.330;43.838;2023-07-31T02:50:34;99502.28;;;15.12;100.00
63946;BME280;50122;56.330;43.838;2023-07-31T02:53:01;99507.38;;;15.15;100.00
63946;BME280;50122;56.330;43.838;2023-07-31T02:55:28;99506.03;;;15.21;100.00
63946;BME280;50122;56.330;43.838;2023-07-31T02:57:55;99509.34;;;15.24;100.00
63946;BME280;50122;56.330;43.838;2023-07-31T03:00:22;99503.19;;;15.24;100.00
63946;BME280;50122;56.330;43.838;2023-07-31T03:02:48;99508.97;;;15.29;100.00
63946;BME280;50122;56.330;43.838;2023-07-31T03:05:15;99505.72;;;15.37;100.00
63946;BME280;50122;56.330;43.838;2023-07-31T03:07:42;99503.56;;;15.42;100.00
63946;BME280;50122;56.330;43.838;2023-07-31T03:10:09;99503.72;;;15.52;100.00
63946;BME280;50122;56.330;43.838;2023-07-31T03:12:35;99502.28;;;15.59;98.31
63946;BME280;50122;56.330;43.838;2023-07-31T03:15:02;99495.13;;;15.59;97.69
63946;BME280;50122;56.330;43.838;2023-07-31T03:17:29;99506.41;;;15.63;97.59
63946;BME280;50122;56.330;43.838;2023-07-31T03:19:56;99507.50;;;15.60;98.09
63946;BME280;50122;56.330;43.838;2023-07-31T03:22:23;99507.88;;;15.67;97.12
63946;BME280;50122;56.330;43.838;2023-07-31T03:24:49;99514.75;;;15.70;96.61
63946;BME280;50122;56.330;43.838;2023-07-31T03:27:18;99513.56;;;15.74;96.20
63946;BME280;50122;56.330;43.838;2023-07-31T03:29:45;99515.97;;;15.77;95.91
63946;BME280;50122;56.330;43.838;2023-07-31T03:32:12;99515.66;;;15.82;96.15
63946;BME280;50122;56.330;43.838;2023-07-31T03:34:38;99519.06;;;15.84;95.30
63946;BME280;50122;56.330;43.838;2023-07-31T03:37:05;99518.69;;;15.88;95.17
63946;BME280;50122;56.330;43.838;2023-07-31T03:39:33;99515.78;;;15.91;94.78
63946;BME280;50122;56.330;43.838;2023-07-31T03:41:59;99526.06;;;15.96;94.67
63946;BME280;50122;56.330;43.838;2023-07-31T03:44:26;99521.34;;;16.00;94.74
63946;BME280;50122;56.330;43.838;2023-07-31T03:46:53;99529.59;;;16.08;94.15
63946;BME280;50122;56.330;43.838;2023-07-31T03:49:20;99523.91;;;16.12;93.58
63946;BME280;50122;56.330;43.838;2023-07-31T03:51:46;99529.94;;;16.14;93.35
63946;BME280;50122;56.330;43.838;2023-07-31T03:54:13;99524.38;;;16.18;92.50
63946;BME280;50122;56.330;43.838;2023-07-31T03:56:40;99518.31;;;16.27;93.55
63946;BME280;50122;56.330;43.838;2023-07-31T03:59:07;99521.56;;;16.42;92.82
63946;BME280;50122;56.330;43.838;2023-07-31T04:01:35;99525.44;;;16.49;91.79
63946;BME280;50122;56.330;43.838;2023-07-31T04:04:02;99526.06;;;16.53;91.36
63946;BME280;50122;56.330;43.838;2023-07-31T04:06:29;99524.84;;;16.57;90.74
63946;BME280;50122;56.330;43.838;2023-07-31T04:08:59;99523.63;;;16.49;91.06
63946;BME280;50122;56.330;43.838;2023-07-31T04:11:25;99535.84;;;16.52;91.97
63946;BME280;50122;56.330;43.838;2023-07-31T04:13:52;99539.47;;;16.62;90.74
63946;BME280;50122;56.330;43.838;2023-07-31T04:16:19;99535.84;;;16.63;89.51
63946;BME280;50122;56.330;43.838;2023-07-31T04:18:46;99534.88;;;16.64;88.83
63946;BME280;50122;56.330;43.838;2023-07-31T04:21:12;99534.88;;;16.64;89.28
63946;BME280;50122;56.330;43.838;2023-07-31T04:23:39;99531.13;;;16.67;89.42
63946;BME280;50122;56.330;43.838;2023-07-31T04:26:06;99538.00;;;16.70;88.78
63946;BME280;50122;56.330;43.838;2023-07-31T04:28:51;99547.44;;;16.74;89.45
63946;BME280;50122;56.330;43.838;2023-07-31T04:31:19;99543.56;;;16.78;89.16
63946;BME280;50122;56.330;43.838;2023-07-31T04:33:46;99543.09;;;16.73;89.97
63946;BME280;50122;56.330;43.838;2023-07-31T04:36:13;99549.75;;;16.78;89.81
63946;BME280;50122;56.330;43.838;2023-07-31T04:38:40;99543.44;;;16.79;90.12
63946;BME280;50122;56.330;43.838;2023-07-31T04:41:07;99546.38;;;16.88;89.23
63946;BME280;50122;56.330;43.838;2023-07-31T04:43:34;99549.63;;;16.91;88.47
63946;BME280;50122;56.330;43.838;2023-07-31T04:46:01;99554.66;;;17.06;88.10
63946;BME280;50122;56.330;43.838;2023-07-31T04:48:28;99561.66;;;17.18;88.01
63946;BME280;50122;56.330;43.838;2023-07-31T04:50:54;99561.28;;;17.23;86.89
63946;BME280;50122;56.330;43.838;2023-07-31T04:53:21;99555.50;;;17.39;86.94
63946;BME280;50122;56.330;43.838;2023-07-31T04:55:48;99565.47;;;17.58;85.83
63946;BME280;50122;56.330;43.838;2023-07-31T04:58:14;99566.91;;;17.62;86.51
63946;BME280;50122;56.330;43.838;2023-07-31T05:00:42;99569.63;;;17.50;86.74
63946;BME280;50122;56.330;43.838;2023-07-31T05:03:09;99575.59;;;17.22;87.28
63946;BME280;50122;56.330;43.838;2023-07-31T05:05:37;99574.50;;;16.80;90.12
63946;BME280;50122;56.330;43.838;2023-07-31T05:08:04;99585.19;;;16.69;92.81
63946;BME280;50122;56.330;43.838;2023-07-31T05:10:31;99586.16;;;16.68;93.80
63946;BME280;50122;56.330;43.838;2023-07-31T05:12:58;99586.28;;;16.66;95.12
63946;BME280;50122;56.330;43.838;2023-07-31T05:15:25;99583.53;;;16.45;94.80
63946;BME280;50122;56.330;43.838;2023-07-31T05:17:52;99589.47;;;16.26;96.58
63946;BME280;50122;56.330;43.838;2023-07-31T05:20:19;99595.75;;;16.14;97.37
63946;BME280;50122;56.330;43.838;2023-07-31T05:22:46;99587.88;;;16.01;98.65
63946;BME280;50122;56.330;43.838;2023-07-31T05:25:16;99597.69;;;16.01;99.60
63946;BME280;50122;56.330;43.838;2023-07-31T05:27:43;99598.75;;;15.98;100.00
63946;BME280;50122;56.330;43.838;2023-07-31T05:30:10;99591.72;;;15.86;100.00
63946;BME280;50122;56.330;43.838;2023-07-31T05:32:37;99592.56;;;15.86;100.00
63946;BME280;50122;56.330;43.838;2023-07-31T05:35:04;99595.13;;;15.88;100.00
63946;BME280;50122;56.330;43.838;2023-07-31T17:53:25;99971.88;;;17.88;80.63
63946;BME280;50122;56.330;43.838;2023-07-31T17:55:56;99973.44;;;17.80;82.29
63946;BME280;50122;56.330;43.838;2023-07-31T17:58:32;99980.25;;;17.73;83.23
63946;BME280;50122;56.330;43.838;2023-07-31T18:00:59;99977.81;;;17.69;84.36
63946;BME280;50122;56.330;43.838;2023-07-31T18:03:29;99977.06;;;17.67;85.00
63946;BME280;50122;56.330;43.838;2023-07-31T18:05:57;99974.66;;;17.64;85.42
63946;BME280;50122;56.330;43.838;2023-07-31T18:08:30;99972.09;;;17.63;85.94
63946;BME280;50122;56.330;43.838;2023-07-31T18:10:57;99968.72;;;17.61;85.63
63946;BME280;50122;56.330;43.838;2023-07-31T18:13:23;99971.59;;;17.58;86.04
63946;BME280;50122;56.330;43.838;2023-07-31T18:15:51;99970.88;;;17.56;85.83
63946;BME280;50122;56.330;43.838;2023-07-31T18:18:18;99971.72;;;17.56;86.15
63946;BME280;50122;56.330;43.838;2023-07-31T18:20:44;99974.50;;;17.54;85.98
63946;BME280;50122;56.330;43.838;2023-07-31T18:23:14;99968.56;;;17.51;86.34
63946;BME280;50122;56.330;43.838;2023-07-31T18:25:43;99972.56;;;17.45;86.46
63946;BME280;50122;56.330;43.838;2023-07-31T18:28:10;99978.16;;;17.42;86.88
63946;BME280;50122;56.330;43.838;2023-07-31T18:30:39;99977.78;;;17.35;86.92
63946;BME280;50122;56.330;43.838;2023-07-31T18:33:06;99983.22;;;17.34;86.81
63946;BME280;50122;56.330;43.838;2023-07-31T18:35:38;99979.09;;;17.30;87.46
63946;BME280;50122;56.330;43.838;2023-07-31T18:38:05;99983.72;;;17.28;87.38
63946;BME280;50122;56.330;43.838;2023-07-31T18:40:34;99987.47;;;17.25;87.88
63946;BME280;50122;56.330;43.838;2023-07-31T18:43:03;99987.69;;;17.22;88.15
63946;BME280;50122;56.330;43.838;2023-07-31T18:45:32;99987.81;;;17.21;88.00
63946;BME280;50122;56.330;43.838;2023-07-31T18:48:01;99985.59;;;17.14;88.17
63946;BME280;50122;56.330;43.838;2023-07-31T18:50:28;99981.38;;;17.12;88.38
63946;BME280;50122;56.330;43.838;2023-07-31T18:52:59;99985.13;;;17.09;88.28
63946;BME280;50122;56.330;43.838;2023-07-31T18:55:27;99989.81;;;17.06;88.83
63946;BME280;50122;56.330;43.838;2023-07-31T18:57:54;99990.19;;;17.01;88.76
63946;BME280;50122;56.330;43.838;2023-07-31T19:03:32;99996.22;;;16.92;88.79
63946;BME280;50122;56.330;43.838;2023-07-31T19:06:13;99998.34;;;16.87;89.12
63946;BME280;50122;56.330;43.838;2023-07-31T19:08:42;100003.19;;;16.81;88.84
63946;BME280;50122;56.330;43.838;2023-07-31T19:14:36;100005.91;;;16.69;89.24
63946;BME280;50122;56.330;43.838;2023-07-31T19:17:03;100007.09;;;16.64;89.48
63946;BME280;50122;56.330;43.838;2023-07-31T19:19:39;100005.63;;;16.60;89.53
63946;BME280;50122;56.330;43.838;2023-07-31T19:22:05;100012.66;;;16.61;89.92
63946;BME280;50122;56.330;43.838;2023-07-31T19:24:35;100020.78;;;16.60;90.15
63946;BME280;50122;56.330;43.838;2023-07-31T19:27:22;100002.41;;;16.55;89.79
63946;BME280;50122;56.330;43.838;2023-07-31T19:29:57;100009.34;;;16.58;89.87
63946;BME280;50122;56.330;43.838;2023-07-31T19:32:24;100008.63;;;16.56;90.12
63946;BME280;50122;56.330;43.838;2023-07-31T19:35:01;100016.63;;;16.56;90.42
63946;BME280;50122;56.330;43.838;2023-07-31T19:38:02;100018.66;;;16.52;90.40
63946;BME280;50122;56.330;43.838;2023-07-31T19:41:12;100022.84;;;16.43;90.37
63946;BME280;50122;56.330;43.838;2023-07-31T19:44:34;100022.22;;;16.40;90.13
63946;BME280;50122;56.330;43.838;2023-07-31T19:47:18;100021.69;;;16.35;90.18
63946;BME280;50122;56.330;43.838;2023-07-31T19:50:08;100021.31;;;16.28;90.54
63946;BME280;50122;56.330;43.838;2023-07-31T19:52:49;100024.28;;;16.23;90.67
63946;BME280;50122;56.330;43.838;2023-07-31T19:55:21;100022.06;;;16.17;90.75
63946;BME280;50122;56.330;43.838;2023-07-31T19:57:48;100029.44;;;16.13;91.01
63946;BME280;50122;56.330;43.838;2023-07-31T20:00:14;100026.25;;;16.08;91.02
63946;BME280;50122;56.330;43.838;2023-07-31T20:02:39;100025.50;;;16.06;91.28
63946;BME280;50122;56.330;43.838;2023-07-31T20:05:06;100024.63;;;16.06;91.06
63946;BME280;50122;56.330;43.838;2023-07-31T20:07:40;100029.47;;;16.01;91.23
63946;BME280;50122;56.330;43.838;2023-07-31T20:10:14;100018.91;;;15.99;91.39
63946;BME280;50122;56.330;43.838;2023-07-31T20:12:41;100027.84;;;15.98;91.36
63946;BME280;50122;56.330;43.838;2023-07-31T20:15:21;100024.53;;;15.94;91.50
63946;BME280;50122;56.330;43.838;2023-07-31T20:18:02;100030.09;;;15.91;91.73
63946;BME280;50122;56.330;43.838;2023-07-31T20:20:49;100032.13;;;15.88;91.70
63946;BME280;50122;56.330;43.838;2023-07-31T20:23:24;100026.38;;;15.81;91.88
63946;BME280;50122;56.330;43.838;2023-07-31T20:26:16;100025.63;;;15.79;91.98
63946;BME280;50122;56.330;43.838;2023-07-31T20:28:58;100030.09;;;15.78;91.80
63946;BME280;50122;56.330;43.838;2023-07-31T20:31:25;100030.28;;;15.75;92.37
63946;BME280;50122;56.330;43.838;2023-07-31T20:33:57;100029.53;;;15.73;92.21
63946;BME280;50122;56.330;43.838;2023-07-31T20:36:27;100023.44;;;15.71;92.59
63946;BME280;50122;56.330;43.838;2023-07-31T20:38:56;100034.44;;;15.67;92.30
63946;BME280;50122;56.330;43.838;2023-07-31T20:41:25;100029.97;;;15.67;92.77
63946;BME280;50122;56.330;43.838;2023-07-31T20:43:55;100030.81;;;15.68;92.76
63946;BME280;50122;56.330;43.838;2023-07-31T20:46:23;100024.00;;;15.63;92.88
63946;BME280;50122;56.330;43.838;2023-07-31T20:48:50;100030.94;;;15.66;92.80
63946;BME280;50122;56.330;43.838;2023-07-31T20:51:16;100043.59;;;15.62;93.12
63946;BME280;50122;56.330;43.838;2023-07-31T20:53:44;100042.03;;;15.60;93.12
63946;BME280;50122;56.330;43.838;2023-07-31T20:56:10;100037.97;;;15.54;93.24
63946;BME280;50122;56.330;43.838;2023-07-31T20:58:42;100039.13;;;15.50;93.22
63946;BME280;50122;56.330;43.838;2023-07-31T21:01:12;100051.38;;;15.53;93.32
63946;BME280;50122;56.330;43.838;2023-07-31T21:03:55;100041.25;;;15.45;93.20
63946;BME280;50122;56.330;43.838;2023-07-31T21:06:50;100041.34;;;15.43;93.70
63946;BME280;50122;56.330;43.838;2023-07-31T21:09:19;100046.88;;;15.40;93.78
63946;BME280;50122;56.330;43.838;2023-07-31T21:11:51;100046.31;;;15.35;93.91
63946;BME280;50122;56.330;43.838;2023-07-31T21:14:20;100038.56;;;15.32;93.75
63946;BME280;50122;56.330;43.838;2023-07-31T21:16:46;100046.53;;;15.32;93.85
63946;BME280;50122;56.330;43.838;2023-07-31T21:19:37;100051.03;;;15.32;94.03
63946;BME280;50122;56.330;43.838;2023-07-31T21:22:04;100045.81;;;15.30;94.15
63946;BME280;50122;56.330;43.838;2023-07-31T21:24:33;100054.75;;;15.29;94.16
63946;BME280;50122;56.330;43.838;2023-07-31T21:27:06;100054.00;;;15.27;94.25
63946;BME280;50122;56.330;43.838;2023-07-31T21:29:42;100055.91;;;15.25;94.45
63946;BME280;50122;56.330;43.838;2023-07-31T21:32:09;100058.78;;;15.22;94.35
63946;BME280;50122;56.330;43.838;2023-07-31T21:34:36;100057.16;;;15.19;94.24
63946;BME280;50122;56.330;43.838;2023-07-31T21:37:04;100060.03;;;15.16;94.17
63946;BME280;50122;56.330;43.838;2023-07-31T21:39:31;100052.16;;;15.15;94.60
63946;BME280;50122;56.330;43.838;2023-07-31T21:41:58;100052.03;;;15.16;94.84
63946;BME280;50122;56.330;43.838;2023-07-31T21:44:25;100053.88;;;15.16;94.86
63946;BME280;50122;56.330;43.838;2023-07-31T21:46:51;100057.47;;;15.15;94.84
63946;BME280;50122;56.330;43.838;2023-07-31T21:49:18;100069.84;;;15.16;95.40
63946;BME280;50122;56.330;43.838;2023-07-31T21:51:45;100069.84;;;15.16;95.32
63946;BME280;50122;56.330;43.838;2023-07-31T21:54:12;100066.34;;;15.15;95.36
63946;BME280;50122;56.330;43.838;2023-07-31T21:56:39;100069.06;;;15.14;95.40
63946;BME280;50122;56.330;43.838;2023-07-31T21:59:06;100072.81;;;15.11;95.38
63946;BME280;50122;56.330;43.838;2023-07-31T22:01:33;100065.88;;;15.08;95.46
63946;BME280;50122;56.330;43.838;2023-07-31T22:04:01;100065.03;;;15.08;95.33
63946;BME280;50122;56.330;43.838;2023-07-31T22:06:28;100068.63;;;15.07;95.44
63946;BME280;50122;56.330;43.838;2023-07-31T22:08:54;100069.06;;;15.01;95.30
63946;BME280;50122;56.330;43.838;2023-07-31T22:11:21;100069.34;;;14.96;95.53
63946;BME280;50122;56.330;43.838;2023-07-31T22:13:51;100074.00;;;14.92;95.46
63946;BME280;50122;56.330;43.838;2023-07-31T22:16:18;100071.75;;;14.86;95.42
63946;BME280;50122;56.330;43.838;2023-07-31T22:18:45;100083.25;;;14.87;95.66
63946;BME280;50122;56.330;43.838;2023-07-31T22:21:11;100077.16;;;14.85;95.67
63946;BME280;50122;56.330;43.838;2023-07-31T22:23:40;100081.53;;;14.86;95.73
63946;BME280;50122;56.330;43.838;2023-07-31T22:26:07;100092.19;;;14.86;95.62
63946;BME280;50122;56.330;43.838;2023-07-31T22:28:34;100079.06;;;14.83;95.65
63946;BME280;50122;56.330;43.838;2023-07-31T22:31:02;100080.13;;;14.80;95.75
63946;BME280;50122;56.330;43.838;2023-07-31T22:33:28;100088.22;;;14.79;95.88
63946;BME280;50122;56.330;43.838;2023-07-31T22:36:06;100085.75;;;14.75;95.70
63946;BME280;50122;56.330;43.838;2023-07-31T22:38:35;100085.84;;;14.74;95.84
63946;BME280;50122;56.330;43.838;2023-07-31T22:41:03;100087.56;;;14.75;95.84
63946;BME280;50122;56.330;43.838;2023-07-31T22:43:32;100096.38;;;14.75;95.97
63946;BME280;50122;56.330;43.838;2023-07-31T22:45:59;100097.31;;;14.74;95.78
63946;BME280;50122;56.330;43.838;2023-07-31T22:48:30;100092.00;;;14.74;96.09
63946;BME280;50122;56.330;43.838;2023-07-31T22:50:56;100092.00;;;14.74;96.07
63946;BME280;50122;56.330;43.838;2023-07-31T22:53:23;100091.38;;;14.71;96.09
63946;BME280;50122;56.330;43.838;2023-07-31T22:55:52;100090.91;;;14.64;96.06
63946;BME280;50122;56.330;43.838;2023-07-31T22:58:19;100092.72;;;14.64;96.17
63946;BME280;50122;56.330;43.838;2023-07-31T23:00:46;100093.66;;;14.63;96.36
63946;BME280;50122;56.330;43.838;2023-07-31T23:03:13;100091.94;;;14.62;96.42
63946;BME280;50122;56.330;43.838;2023-07-31T23:05:39;100099.97;;;14.60;96.39
63946;BME280;50122;56.330;43.838;2023-07-31T23:08:06;100100.97;;;14.59;96.38
63946;BME280;50122;56.330;43.838;2023-07-31T23:10:33;100101.91;;;14.58;96.68
63946;BME280;50122;56.330;43.838;2023-07-31T23:13:00;100098.41;;;14.57;96.62
63946;BME280;50122;56.330;43.838;2023-07-31T23:15:27;100107.13;;;14.59;96.46
63946;BME280;50122;56.330;43.838;2023-07-31T23:17:53;100101.91;;;14.58;96.62
63946;BME280;50122;56.330;43.838;2023-07-31T23:20:20;100102.09;;;14.55;96.62
63946;BME280;50122;56.330;43.838;2023-07-31T23:22:47;100100.09;;;14.58;96.74
63946;BME280;50122;56.330;43.838;2023-07-31T23:25:15;100104.28;;;14.63;97.38
63946;BME280;50122;56.330;43.838;2023-07-31T23:28:00;100094.44;;;14.65;97.18
63946;BME280;50122;56.330;43.838;2023-07-31T23:30:27;100097.25;;;14.62;96.60
63946;BME280;50122;56.330;43.838;2023-07-31T23:32:53;100087.94;;;14.54;96.53
63946;BME280;50122;56.330;43.838;2023-07-31T23:35:20;100091.88;;;14.49;96.56
63946;BME280;50122;56.330;43.838;2023-07-31T23:37:47;100097.34;;;14.46;96.73
63946;BME280;50122;56.330;43.838;2023-07-31T23:40:14;100097.34;;;14.46;97.08
63946;BME280;50122;56.330;43.838;2023-07-31T23:42:40;100100.69;;;14.49;97.27
63946;BME280;50122;56.330;43.838;2023-07-31T23:45:08;100094.31;;;14.52;97.48
63946;BME280;50122;56.330;43.838;2023-07-31T23:47:39;100095.16;;;14.52;97.11
63946;BME280;50122;56.330;43.838;2023-07-31T23:50:13;100094.22;;;14.53;97.37
63946;BME280;50122;56.330;43.838;2023-07-31T23:52:43;100097.81;;;14.52;97.40
63946;BME280;50122;56.330;43.838;2023-07-31T23:55:16;100092.69;;;14.49;97.05
63946;BME280;50122;56.330;43.838;2023-07-31T23:57:43;100101.81;;;14.45;97.06
